In Rescue
 
Open Full Screen Window  High Contrast Mode
Wind Gusting 00 knots
05
February 29, 2024 12:30 PM EST
Weather Information
Wind Direction
  VRB °
Wind Speed
  05 kt (6 mph)
Wind Gust
  00 kt (0 mph)
Altimeter
30.49 in
Visibility
10 SM
Temperature
02° C
36° F
Dewpoint
-11° C
12° F
Humidity
38%
Sky Condition
Clear
VFR

METAR KGDK 291730Z AUTO VRB05KT 10SM CLR 02/M11 A3049 RMK AO2

FAA Disclaimer: The data displayed is for advisory purposes only and is not to be used for flight planning or operations.